Flight Track Log - Related Links

Times and Time Zones

All times are in EDT time to prevent confusion due to time zone crossing. See the AAY855 flight status page for this flight to view local times or setup timezone preferences in your user account.

Time Position Orientation Groundspeed Altitude Reporting Facility
EDT Latitude Longitude Course Direction KTS MPH feet Rate Location/Type
Mon 06:37:31 PM 41.6739 -86.3969 131° Southeast 208 239 3,100  Level Chicago Center
Mon 06:38:33 PM 41.5961 -86.3889 176° South 288 331 6,200 2,710 Climbing Chicago Center
Mon 06:39:35 PM 41.5464 -86.2956 125° Southeast 310 357 8,700 1,935 Climbing Chicago Center
Mon 06:40:37 PM 41.4781 -86.2147 138° Southeast 337 388 10,200 1,258 Climbing Chicago Center
Mon 06:41:39 PM 41.3756 -86.1708 162° South 384 442 11,300 1,632 Climbing Chicago Center
Mon 06:42:00 PM 41.3208 -85.7145 131° Southeast  Level FlightAware Approximate
Mon 06:42:42 PM 41.2647 -86.1175 160° South 420 483 13,600  Level Chicago Center
Mon 06:43:00 PM 41.2426 -85.5967 131° Southeast  Level FlightAware Approximate
Mon 06:43:44 PM 41.1239 -86.0578 162° South 443 510 15,900  Level Chicago Center
Mon 06:44:46 PM 41.0014 -86.0081 163° South 458 527 18,200 2,129 Climbing Chicago Center
Mon 06:45:48 PM 40.8764 -85.9625 165° South 466 536 20,300 1,742 Climbing Chicago Center
Mon 06:46:50 PM 40.7489 -85.9278 168° South 468 539 21,800 1,500 Climbing Chicago Center
Mon 06:47:52 PM 40.6053 -85.8850 167° South 480 552 23,400 1,645 Climbing Chicago Center
Mon 06:48:54 PM 40.4722 -85.8450 167° South 487 560 25,200 1,597 Climbing Chicago Center
Mon 06:49:56 PM 40.3406 -85.8031 166° South 486 559 26,700 1,500 Climbing Chicago Center
Mon 06:50:58 PM 40.2106 -85.7600 166° South 483 556 28,300 1,113 Climbing Chicago Center
Mon 06:52:00 PM 40.0828 -85.6989 160° South 484 557 29,000 1,065 Climbing Chicago Center
Mon 06:53:02 PM 39.9297 -85.6272 160° South 483 556 30,500 1,016 Climbing Chicago Center
Mon 06:54:04 PM 39.8042 -85.5719 161° South 477 549 31,100 244 Climbing Chicago Center
Mon 06:55:05 PM 39.6744 -85.5131 161° South 488 562 31,000 -49 Descending Chicago Center
Mon 06:56:07 PM 39.5417 -85.4825 170° South 488 562 31,000  Level Chicago Center
Mon 06:57:30 PM 39.3522 -85.4497 172° South 484 557 31,000  Level Indianapolis Center
Mon 06:58:32 PM 39.2186 -85.4233 171° South 484 557 31,000  Level Indianapolis Center
Mon 06:59:34 PM 39.0831 -85.3981 172° South 485 558 31,000  Level Indianapolis Center
Mon 07:00:36 PM 38.9478 -85.3733 172° South 487 560 31,000  Level Indianapolis Center
Mon 07:01:38 PM 38.8125 -85.3467 171° South 490 564 31,000  Level Indianapolis Center
Mon 07:02:40 PM 38.6506 -85.3158 172° South 491 565 31,000  Level Indianapolis Center
Mon 07:03:42 PM 38.5206 -85.2925 172° South 491 565 31,000  Level Indianapolis Center
Mon 07:04:44 PM 38.3853 -85.2669 172° South 490 564 31,000  Level Indianapolis Center
Mon 07:05:46 PM 38.2519 -85.2417 172° South 487 560 31,000 48 Level Indianapolis Center
Mon 07:06:48 PM 38.1169 -85.2175 172° South 487 560 31,100  Climbing Indianapolis Center
Mon 07:07:50 PM 37.9606 -85.1883 172° South 486 559 31,000 -48 Descending Indianapolis Center
Mon 07:08:52 PM 37.8272 -85.1622 171° South 483 556 31,000  Level Indianapolis Center
Mon 07:09:53 PM 37.6936 -85.1389 172° South 483 556 31,000  Level Indianapolis Center
Mon 07:10:55 PM 37.5617 -85.1133 171° South 483 556 31,000  Level Indianapolis Center
Mon 07:11:57 PM 37.4272 -85.0903 172° South 483 556 31,000  Level Indianapolis Center
Mon 07:12:59 PM 37.2728 -85.0619 172° South 483 556 31,000  Level Indianapolis Center
Mon 07:14:01 PM 37.1400 -85.0386 172° South 483 556 31,000  Level Indianapolis Center
Mon 07:15:03 PM 37.0214 -85.0172 172° South 483 556 31,000  Level Indianapolis Center
Mon 07:16:05 PM 36.8631 -84.9897 172° South 482 555 31,000  Level Indianapolis Center
Mon 07:17:07 PM 36.7303 -84.9653 172° South 482 555 31,000  Level Indianapolis Center
Mon 07:18:09 PM 36.5969 -84.9419 172° South 482 555 31,000  Level Indianapolis Center
Mon 07:19:11 PM 36.4636 -84.9181 172° South 482 555 31,000  Level Indianapolis Center
Mon 07:20:12 PM 36.3308 -84.8953 172° South 482 555 31,000  Level Indianapolis Center
Mon 07:21:14 PM 36.1983 -84.8728 172° South 482 555 31,000  Level Indianapolis Center
Mon 07:21:58 PM 36.0847 -84.8531 172° South 483 556 31,000  Level Atlanta Center
Mon 07:22:58 PM 35.9536 -84.8289 172° South 483 556 31,000  Level Atlanta Center
Mon 07:23:58 PM 35.8161 -84.8094 173° South 488 562 31,000  Level Atlanta Center
Mon 07:24:58 PM 35.6847 -84.7853 172° South 488 562 31,000  Level Atlanta Center
Mon 07:25:58 PM 35.5556 -84.7636 172° South 482 555 31,000  Level Atlanta Center
Mon 07:26:58 PM 35.4222 -84.7397 172° South 482 555 31,000  Level Atlanta Center
Mon 07:27:58 PM 35.2908 -84.7156 171° South 482 555 31,000  Level Atlanta Center
Mon 07:28:58 PM 35.1844 -84.6994 173° South 482 555 31,000  Level Atlanta Center
Mon 07:29:58 PM 35.0406 -84.6731 171° South 482 555 31,000  Level Atlanta Center
Mon 07:30:58 PM 34.9133 -84.6517 172° South 482 555 31,000  Level Atlanta Center
Mon 07:31:58 PM 34.7822 -84.6306 172° South 482 555 31,000  Level Atlanta Center
Mon 07:32:58 PM 34.6425 -84.6044 171° South 482 555 31,000  Level Atlanta Center
Mon 07:33:58 PM 34.5172 -84.5833 172° South 472 543 31,000 50 Level Atlanta Center
Mon 07:34:58 PM 34.3839 -84.5597 172° South 467 537 31,100  Climbing Atlanta Center
Mon 07:35:58 PM 34.2586 -84.5414 173° South 467 537 31,000 -50 Descending Atlanta Center
Mon 07:36:58 PM 34.1419 -84.5208 172° South 467 537 31,000  Level Atlanta Center
Mon 07:37:58 PM 33.9981 -84.4997 173° South 477 549 31,000  Level Atlanta Center
Mon 07:38:58 PM 33.8708 -84.4767 171° South 477 549 31,000  Level Atlanta Center
Mon 07:39:58 PM 33.7414 -84.4561 172° South 477 549 31,000  Level Atlanta Center
Mon 07:40:58 PM 33.6100 -84.4353 172° South 477 549 31,000  Level Atlanta Center
Mon 07:41:58 PM 33.4825 -84.4347 180° South 465 535 31,000  Level Atlanta Center
Mon 07:42:58 PM 33.3533 -84.4342 180° South 465 535 31,000  Level Atlanta Center
Mon 07:43:58 PM 33.2197 -84.4311 179° South 465 535 31,000  Level Atlanta Center
Mon 07:44:58 PM 33.1006 -84.4231 177° South 465 535 31,000  Level Atlanta Center
Mon 07:45:58 PM 32.9650 -84.4003 172° South 486 559 31,000  Level Atlanta Center
Mon 07:46:58 PM 32.8294 -84.3775 172° South 491 565 31,000  Level Atlanta Center
Mon 07:47:58 PM 32.6814 -84.3497 171° South 497 572 31,000  Level Atlanta Center
Mon 07:48:58 PM 32.5456 -84.3272 172° South 497 572 31,000  Level Atlanta Center
Mon 07:49:58 PM 32.4081 -84.3069 173° South 502 578 31,000  Level Atlanta Center
Mon 07:50:58 PM 32.2722 -84.2844 172° South 502 578 31,000  Level Atlanta Center
Mon 07:51:58 PM 32.1347 -84.2619 172° South 502 578 31,000  Level Atlanta Center
Mon 07:52:58 PM 31.9989 -84.2397 172° South 502 578 31,000  Level Atlanta Center
Mon 07:54:07 PM 31.8444 -84.2156 172° South 479 551 31,000  Level Jacksonville Center
Mon 07:55:07 PM 31.7069 -84.1917 172° South 485 558 31,000 -350 Level Jacksonville Center
Mon 07:56:07 PM 31.5692 -84.1678 172° South 495 570 30,300 -800 Descending Jacksonville Center
Mon 07:57:07 PM 31.4317 -84.1464 172° South 502 578 29,400 -650 Descending Jacksonville Center
Mon 07:58:07 PM 31.2983 -84.1253 172° South 502 578 29,000 -200 Descending Jacksonville Center
Mon 07:59:07 PM 31.1628 -84.1042 172° South 497 572 29,000  Level Jacksonville Center
Mon 08:00:07 PM 31.0314 -84.0806 171° South 492 566 29,000  Level Jacksonville Center
Mon 08:01:07 PM 30.9022 -84.0403 165° South 486 559 29,000  Level Jacksonville Center
Mon 08:02:07 PM 30.7733 -84.0025 166° South 486 559 29,000  Level Jacksonville Center
Mon 08:03:07 PM 30.6419 -83.9575 164° South 486 559 29,000  Level Jacksonville Center
Mon 08:04:07 PM 30.5275 -83.9200 164° South 486 559 29,000  Level Jacksonville Center
Mon 08:05:07 PM 30.3983 -83.8775 164° South 486 559 29,000  Level Jacksonville Center
Mon 08:06:07 PM 30.2672 -83.8403 166° South 486 559 29,000  Level Jacksonville Center
Mon 08:07:07 PM 30.1339 -83.7981 165° South 491 565 29,000  Level Jacksonville Center
Mon 08:08:07 PM 30.0006 -83.7536 164° South 491 565 29,000  Level Jacksonville Center
Mon 08:09:07 PM 29.8692 -83.7142 165° South 491 565 29,000 -800 Level Jacksonville Center
Mon 08:10:07 PM 29.7358 -83.6700 164° South 491 565 27,400 -1,000 Descending Jacksonville Center
Mon 08:11:07 PM 29.5922 -83.6258 165° South 491 565 27,000 -200 Descending Jacksonville Center
Mon 08:12:07 PM 29.4631 -83.5844 164° South 486 559 27,000  Level Jacksonville Center
Mon 08:13:07 PM 29.3336 -83.5453 165° South 486 559 27,000 -600 Level Jacksonville Center
Mon 08:14:07 PM 29.2086 -83.4992 162° South 480 552 25,800 -1,500 Descending Jacksonville Center
Mon 08:15:07 PM 29.0900 -83.4250 151° Southeast 480 552 24,000 -1,250 Descending Jacksonville Center
Mon 08:16:07 PM 28.9756 -83.3531 151° Southeast 474 545 23,300 -1,350 Descending Jacksonville Center
Mon 08:17:07 PM 28.8653 -83.2814 150° Southeast 474 545 21,300 -1,350 Descending Jacksonville Center
Mon 08:18:07 PM 28.7547 -83.2122 151° Southeast 463 533 20,600 -1,550 Descending Jacksonville Center
Mon 08:19:07 PM 28.6464 -83.1433 151° Southeast 457 526 18,200 -2,471 Descending Jacksonville Center
Mon 08:20:23 PM 28.5167 -83.0667 153° Southeast 425 489 15,000 -2,298 Descending Tampa TRACON
Mon 08:21:28 PM 28.4000 -83.0000 153° Southeast 407 468 12,800 -1,680 Descending Tampa TRACON
Mon 08:22:28 PM 28.3000 -82.9333 150° Southeast 369 425 11,500 -1,091 Descending Tampa TRACON
Mon 08:23:29 PM 28.2167 -82.9167 170° South 326 375 10,600 -1,240 Descending Tampa TRACON
Mon 08:24:29 PM 28.1333 -82.9000 170° South 290 334 9,000 -2,112 Descending Tampa TRACON
Mon 08:25:34 PM 28.0500 -82.8667 161° South 282 325 6,200 -2,550 Descending Tampa TRACON
Mon 08:26:29 PM 27.9833 -82.8500 168° South 274 315 3,900 -1,670 Descending Tampa TRACON
Mon 08:27:29 PM 27.9167 -82.8333 168° South 238 274 3,000 -850 Descending Tampa TRACON
Mon 08:28:29 PM 27.8667 -82.8167 164° South 193 222 2,200 -667 Descending Tampa TRACON
Mon 08:29:35 PM 27.8167 -82.7833 149° Southeast 189 217 1,600 -400 Descending Tampa TRACON
Mon 08:30:29 PM 27.8167 -82.7167 90° East 182 209 1,400 -250 Descending Tampa TRACON
Mon 08:31:35 PM 27.8500 -82.6833 41° Northeast 151 174 1,100 -476 Descending Tampa TRACON
Mon 08:32:35 PM 27.8833 -82.6833 360° North 132 152 400 -700 Descending Tampa TRACON

Login

Don't have an account? Register now (free) for customized features, flight alerts, and more!